South Pownal, Vermont
Current Conditions -  °F | °C
As of 5:52 AM on Monday 20 Oct 2014 (Local Time) from KAQW Reporting Station
Clear Clear  
Wind Chill: 24°   Ceiling: Unl
Heat Index: 30°   Visibility: 10mi
Dew Point: 27°   Wind: 6mph
Humidity: 88%   Direction: 250°WSW
Pressure: 30.02"   Gusts: NA
Location:  42.7845°N, 73.2029°W
Report Text: KAQW 200952Z AUTO 25005KT 10SM CLR M01/M03 A3002 RMK AO2 SLP174 T10111028
Loading
Personal Weather Stations






























Interactive Weather Map
Tropical Storm Tracking
New forecast layout! Learn more

10-Day Weather Forecast

Advertisements
Track Severe Weather on mobile